createdAt,value
2018-02-10T00:00:40.243Z,101302.94
2018-02-10T00:03:07.992Z,101302.64
2018-02-10T00:05:35.694Z,101305.00
2018-02-10T00:08:03.384Z,101304.40
2018-02-10T00:10:31.061Z,101307.30
2018-02-10T00:12:58.725Z,101310.19
2018-02-10T00:15:26.447Z,101309.50
2018-02-10T00:17:54.158Z,101314.10
2018-02-10T00:20:21.882Z,101317.91
2018-02-10T00:22:49.581Z,101316.39
2018-02-10T00:25:17.631Z,101321.03
2018-02-10T00:27:45.308Z,101313.27
2018-02-10T00:30:12.979Z,101317.08
2018-02-10T00:32:40.703Z,101316.20
2018-02-10T00:35:08.359Z,101315.06
2018-02-10T00:37:36.041Z,101315.10
2018-02-10T00:40:03.752Z,101315.86
2018-02-10T00:42:31.414Z,101317.64
2018-02-10T00:44:59.099Z,101323.12
2018-02-10T00:47:26.785Z,101327.42
2018-02-10T00:49:54.858Z,101322.63
2018-02-10T00:52:22.506Z,101326.73
2018-02-10T00:54:50.200Z,101328.29
2018-02-10T00:57:18.346Z,101335.86
2018-02-10T00:59:45.970Z,101328.59
2018-02-10T01:02:13.632Z,101329.35
2018-02-10T01:04:42.067Z,101330.08
2018-02-10T01:07:09.731Z,101333.88
2018-02-10T01:09:37.359Z,101338.92
2018-02-10T01:12:05.247Z,101332.58
2018-02-10T01:14:32.974Z,101332.80
2018-02-10T01:17:00.662Z,101326.68
2018-02-10T01:19:28.536Z,101327.52
2018-02-10T01:21:56.282Z,101330.41
2018-02-10T01:24:23.971Z,101330.21
2018-02-10T01:26:51.681Z,101326.45
2018-02-10T01:29:19.293Z,101331.98
2018-02-10T01:31:46.966Z,101325.45
2018-02-10T01:34:14.722Z,101329.14
2018-02-10T01:36:42.400Z,101328.56
2018-02-10T01:39:10.141Z,101323.32
2018-02-10T01:41:38.194Z,101338.63
2018-02-10T01:44:05.789Z,101332.20
2018-02-10T01:46:33.448Z,101331.89
2018-02-10T01:49:01.141Z,101340.52
2018-02-10T01:51:34.927Z,101339.34
2018-02-10T01:54:03.865Z,101333.53
2018-02-10T01:56:31.569Z,101333.23
2018-02-10T01:58:59.326Z,101332.23
2018-02-10T02:01:27.007Z,101334.17
2018-02-10T02:03:54.686Z,101330.94
2018-02-10T02:06:22.409Z,101325.84
2018-02-10T02:08:50.144Z,101324.20
2018-02-10T02:11:17.885Z,101328.69
2018-02-10T02:13:45.673Z,101326.55
2018-02-10T02:16:13.426Z,101330.66
2018-02-10T02:18:41.103Z,101328.72
2018-02-10T02:21:08.844Z,101337.64
2018-02-10T02:23:36.543Z,101335.20
2018-02-10T02:26:04.309Z,101330.49
2018-02-10T02:28:31.995Z,101328.97
2018-02-10T02:30:59.832Z,101326.42
2018-02-10T02:33:27.523Z,101329.83
2018-02-10T02:35:55.234Z,101328.31
2018-02-10T02:38:24.935Z,101331.58
2018-02-10T02:40:52.615Z,101328.64
2018-02-10T02:43:20.649Z,101322.30
2018-02-10T02:45:48.277Z,101331.41
2018-02-10T02:48:15.926Z,101323.16
2018-02-10T02:50:43.771Z,101328.86
2018-02-10T02:53:11.413Z,101330.72
2018-02-10T02:55:39.091Z,101338.00
2018-02-10T02:58:06.804Z,101340.05
2018-02-10T03:00:34.473Z,101338.42
2018-02-10T03:03:02.134Z,101338.11
2018-02-10T03:05:29.799Z,101344.98
2018-02-10T03:07:57.575Z,101344.78
2018-02-10T03:10:25.261Z,101345.09
2018-02-10T03:12:52.934Z,101341.22
2018-02-10T03:15:20.969Z,101338.11
2018-02-10T03:17:49.037Z,101330.33
2018-02-10T03:20:16.725Z,101334.52
2018-02-10T03:22:44.444Z,101326.31
2018-02-10T03:25:12.833Z,101330.91
2018-02-10T03:27:40.576Z,101333.66
2018-02-10T03:30:08.242Z,101334.77
2018-02-10T03:32:36.045Z,101330.33
2018-02-10T03:35:03.706Z,101332.37
2018-02-10T03:37:31.430Z,101332.47
2018-02-10T03:39:59.120Z,101326.81
2018-02-10T03:42:26.875Z,101329.22
2018-02-10T03:44:55.052Z,101329.83
2018-02-10T03:47:22.753Z,101332.84
2018-02-10T03:49:50.430Z,101333.14
2018-02-10T03:52:18.163Z,101346.30
2018-02-10T03:54:46.006Z,101349.77
2018-02-10T03:57:13.834Z,101356.88
2018-02-10T03:59:41.857Z,101352.47
2018-02-10T04:02:09.512Z,101362.05
2018-02-10T04:04:37.322Z,101365.91
2018-02-10T04:07:05.052Z,101368.15
2018-02-10T04:09:32.749Z,101370.58
2018-02-10T04:12:00.511Z,101368.50
2018-02-10T04:14:28.273Z,101367.55
2018-02-10T04:16:55.948Z,101368.63
2018-02-10T04:19:23.631Z,101373.91
2018-02-10T04:21:51.323Z,101370.95
2018-02-10T04:24:18.998Z,101378.17
2018-02-10T04:26:46.818Z,101379.59
2018-02-10T04:29:14.518Z,101384.98
2018-02-10T04:31:42.233Z,101382.30
2018-02-10T04:34:09.896Z,101380.13
2018-02-10T04:36:37.680Z,101373.55
2018-02-10T04:39:05.466Z,101377.50
2018-02-10T04:41:33.142Z,101375.11
2018-02-10T04:44:00.892Z,101373.48
2018-02-10T04:46:28.533Z,101378.05
2018-02-10T04:48:56.191Z,101374.54
2018-02-10T04:51:23.919Z,101367.55
2018-02-10T04:53:51.561Z,101366.52
2018-02-10T04:56:19.263Z,101366.41
2018-02-10T04:58:47.012Z,101370.86
2018-02-10T05:01:14.645Z,101365.22
2018-02-10T05:03:42.392Z,101366.02
2018-02-10T05:06:10.093Z,101368.45
2018-02-10T05:08:37.899Z,101373.86
2018-02-10T05:11:05.609Z,101376.94
2018-02-10T05:13:33.264Z,101368.30
2018-02-10T05:16:01.095Z,101372.91
2018-02-10T05:18:28.774Z,101377.89
2018-02-10T05:20:56.546Z,101384.73
2018-02-10T05:23:24.243Z,101384.20
2018-02-10T05:25:51.975Z,101379.71
2018-02-10T05:28:20.572Z,101371.72
2018-02-10T05:30:48.332Z,101372.52
2018-02-10T05:33:15.949Z,101375.91
2018-02-10T05:35:43.595Z,101376.09
2018-02-10T05:38:11.307Z,101367.57
2018-02-10T05:40:39.045Z,101373.59
2018-02-10T05:43:07.912Z,101361.55
2018-02-10T05:45:35.830Z,101362.69
2018-02-10T05:48:03.600Z,101352.19
2018-02-10T05:50:31.390Z,101358.73
2018-02-10T05:52:59.111Z,101357.33
2018-02-10T05:55:26.809Z,101362.30
2018-02-10T05:57:54.596Z,101355.00
2018-02-10T06:00:22.350Z,101352.52
2018-02-10T06:02:49.986Z,101351.91
2018-02-10T06:05:17.768Z,101352.30
2018-02-10T06:07:45.474Z,101357.39
2018-02-10T06:10:13.283Z,101348.36
2018-02-10T06:12:40.987Z,101353.08
2018-02-10T06:15:08.719Z,101352.84
2018-02-10T06:17:36.475Z,101354.48
2018-02-10T06:20:04.147Z,101356.20
2018-02-10T06:22:31.966Z,101353.53
2018-02-10T06:24:59.707Z,101365.03
2018-02-10T06:27:27.404Z,101370.73
2018-02-10T06:29:55.153Z,101368.03
2018-02-10T06:32:23.577Z,101364.52
2018-02-10T06:34:51.325Z,101363.60
2018-02-10T06:37:18.959Z,101365.32
2018-02-10T06:39:46.718Z,101363.79
2018-02-10T06:42:14.491Z,101376.05
2018-02-10T06:44:42.260Z,101365.08
2018-02-10T06:47:09.980Z,101367.51
2018-02-10T06:49:37.669Z,101370.48
2018-02-10T06:52:05.382Z,101376.91
2018-02-10T06:54:33.088Z,101381.14
2018-02-10T06:57:00.871Z,101381.83
2018-02-10T06:59:28.499Z,101379.45
2018-02-10T07:01:56.202Z,101385.09
2018-02-10T07:04:23.850Z,101385.89
2018-02-10T07:06:51.568Z,101383.23
2018-02-10T07:09:19.278Z,101386.31
2018-02-10T07:11:46.924Z,101384.03
2018-02-10T07:14:15.128Z,101379.80
2018-02-10T07:16:42.877Z,101377.25
2018-02-10T07:19:10.626Z,101381.96
2018-02-10T07:21:38.356Z,101383.86
2018-02-10T07:24:06.090Z,101382.03
2018-02-10T07:26:34.117Z,101381.00
2018-02-10T07:29:02.120Z,101389.45
2018-02-10T07:31:29.781Z,101386.33
2018-02-10T07:33:57.681Z,101391.04
2018-02-10T07:36:25.414Z,101385.47
2018-02-10T07:38:53.148Z,101386.58
2018-02-10T07:41:20.823Z,101383.68
2018-02-10T07:43:48.803Z,101383.98
2018-02-10T07:46:16.443Z,101391.48
2018-02-10T07:48:44.103Z,101392.70
2018-02-10T07:51:12.036Z,101390.59
2018-02-10T07:53:40.090Z,101386.55
2018-02-10T07:56:07.782Z,101385.40
2018-02-10T07:58:36.061Z,101379.10
2018-02-10T08:01:03.806Z,101374.34
2018-02-10T08:03:31.479Z,101378.28
2018-02-10T08:05:59.175Z,101369.19
2018-02-10T08:08:26.882Z,101362.52
2018-02-10T08:10:54.564Z,101363.84
2018-02-10T08:13:22.317Z,101362.16
2018-02-10T08:15:50.026Z,101360.41
2018-02-10T08:18:17.931Z,101368.91
2018-02-10T08:20:45.939Z,101372.80
2018-02-10T08:23:13.574Z,101367.83
2018-02-10T08:25:41.638Z,101362.07
2018-02-10T08:28:09.282Z,101368.68
2018-02-10T08:30:36.944Z,101363.52
2018-02-10T08:33:04.637Z,101362.97
2018-02-10T08:35:32.262Z,101368.63
2018-02-10T08:37:59.930Z,101372.31
2018-02-10T08:40:27.612Z,101364.48
2018-02-10T08:42:55.241Z,101366.39
2018-02-10T08:45:22.904Z,101361.34
2018-02-10T08:47:50.644Z,101363.37
2018-02-10T08:50:18.349Z,101387.20
2018-02-10T08:52:46.357Z,101403.83
2018-02-10T08:55:13.959Z,101414.16
2018-02-10T08:57:41.572Z,101414.05
2018-02-10T09:00:09.346Z,101418.89
2018-02-10T09:02:37.034Z,101416.85
2018-02-10T09:05:04.694Z,101424.75
2018-02-10T09:07:32.356Z,101423.23
2018-02-10T09:10:00.015Z,101421.55
2018-02-10T09:12:28.075Z,101421.11
2018-02-10T09:14:55.704Z,101415.83
2018-02-10T09:17:23.710Z,101413.09
2018-02-10T09:19:52.085Z,101413.24
2018-02-10T09:22:19.986Z,101415.17
2018-02-10T09:24:47.758Z,101406.30
2018-02-10T09:27:15.484Z,101399.27
2018-02-10T09:29:43.118Z,101403.51
2018-02-10T09:32:11.234Z,101402.61
2018-02-10T09:34:38.929Z,101400.30
2018-02-10T09:37:06.551Z,101399.81
2018-02-10T09:39:34.247Z,101400.47
2018-02-10T09:42:01.905Z,101397.55
2018-02-10T09:44:29.600Z,101402.18
2018-02-10T09:46:57.340Z,101409.33
2018-02-10T09:49:25.212Z,101407.25
2018-02-10T09:51:53.210Z,101408.52
2018-02-10T09:54:20.866Z,101409.80
2018-02-10T09:56:48.526Z,101411.31
2018-02-10T09:59:16.188Z,101411.58
2018-02-10T10:01:43.908Z,101418.19
2018-02-10T10:04:11.667Z,101419.28
2018-02-10T10:06:39.324Z,101432.59
2018-02-10T10:09:07.102Z,101432.50
2018-02-10T10:11:35.070Z,101438.64
2018-02-10T10:14:02.791Z,101434.27
2018-02-10T10:16:30.504Z,101433.52
2018-02-10T10:18:58.638Z,101432.31
2018-02-10T10:21:26.426Z,101431.53
2018-02-10T10:23:54.182Z,101430.55
2018-02-10T10:26:21.839Z,101431.03
2018-02-10T10:28:49.948Z,101434.96
2018-02-10T10:31:17.642Z,101431.80
2018-02-10T10:33:45.284Z,101429.48
2018-02-10T10:36:15.934Z,101423.34
2018-02-10T10:38:47.695Z,101412.02
2018-02-10T10:41:23.111Z,101412.87
2018-02-10T10:43:59.759Z,101408.20
2018-02-10T10:46:27.469Z,101395.18
2018-02-10T10:48:55.166Z,101394.06
2018-02-10T10:51:23.214Z,101395.63
2018-02-10T10:53:50.880Z,101406.49
2018-02-10T10:56:18.641Z,101401.16
2018-02-10T10:58:46.349Z,101405.40
2018-02-10T11:01:14.620Z,101405.08
2018-02-10T11:03:48.914Z,101409.19
2018-02-10T11:06:17.368Z,101408.19
2018-02-10T11:08:45.166Z,101401.84
2018-02-10T11:24:55.268Z,101391.62
2018-02-10T11:27:23.048Z,101388.58
2018-02-10T11:29:50.748Z,101383.28
2018-02-10T11:32:18.519Z,101384.73
2018-02-10T11:34:46.678Z,101386.12
2018-02-10T11:37:14.778Z,101385.87
2018-02-10T11:39:42.640Z,101388.55
2018-02-10T11:42:11.143Z,101378.92
2018-02-10T11:44:38.875Z,101375.21
2018-02-10T11:47:07.734Z,101369.10
2018-02-10T11:49:35.527Z,101370.87
2018-02-10T11:52:06.532Z,101373.38
2018-02-10T11:54:34.243Z,101360.78
2018-02-10T11:57:02.015Z,101357.10
2018-02-10T11:59:29.799Z,101357.94
2018-02-10T12:02:04.428Z,101360.95
2018-02-10T12:04:32.577Z,101362.16
2018-02-10T12:07:01.557Z,101367.02
2018-02-10T12:09:33.815Z,101365.81
2018-02-10T12:12:01.501Z,101359.56
2018-02-10T12:14:29.280Z,101361.75
2018-02-10T12:16:58.095Z,101361.25
2018-02-10T12:19:27.543Z,101356.22
2018-02-10T12:21:56.750Z,101361.24
2018-02-10T12:24:24.821Z,101360.11
2018-02-10T12:27:04.909Z,101355.34
2018-02-10T12:29:32.935Z,101356.08
2018-02-10T12:32:00.705Z,101353.34
2018-02-10T12:34:28.828Z,101346.72
2018-02-10T12:36:56.494Z,101340.89
2018-02-10T12:39:25.211Z,101334.14
2018-02-10T12:41:52.932Z,101335.58
2018-02-10T12:44:20.661Z,101333.64
2018-02-10T12:46:48.442Z,101331.88
2018-02-10T12:49:35.941Z,101330.99
2018-02-10T12:52:04.141Z,101328.09
2018-02-10T12:54:31.940Z,101326.08
2018-02-10T12:56:59.947Z,101329.17
2018-02-10T12:59:28.026Z,101324.95
2018-02-10T13:01:56.110Z,101322.02
2018-02-10T13:04:23.877Z,101319.83
2018-02-10T13:06:51.596Z,101314.75
2018-02-10T13:09:19.282Z,101310.19
2018-02-10T13:11:47.001Z,101302.45
2018-02-10T13:14:14.615Z,101303.44
2018-02-10T13:16:42.418Z,101307.63
2018-02-10T13:19:10.076Z,101299.20
2018-02-10T13:21:37.794Z,101297.12
2018-02-10T13:24:05.472Z,101303.72
2018-02-10T13:26:33.296Z,101301.17
2018-02-10T13:29:01.018Z,101296.89
2018-02-10T13:31:29.071Z,101292.89
2018-02-10T13:33:56.796Z,101295.70
2018-02-10T13:36:24.517Z,101297.66
2018-02-10T13:38:53.345Z,101294.05
2018-02-10T13:41:21.036Z,101300.34
2018-02-10T13:43:48.836Z,101292.99
2018-02-10T13:46:16.576Z,101293.53
2018-02-10T13:48:44.684Z,101296.34
2018-02-10T13:51:12.497Z,101292.73
2018-02-10T13:53:40.172Z,101283.06
2018-02-10T13:56:08.257Z,101276.45
2018-02-10T13:58:35.992Z,101268.16
2018-02-10T14:01:03.629Z,101269.91
2018-02-10T14:03:31.293Z,101268.85
2018-02-10T14:05:59.029Z,101272.18
2018-02-10T14:08:27.073Z,101267.77
2018-02-10T14:10:54.821Z,101262.66
2018-02-10T14:13:22.481Z,101265.24
2018-02-10T14:15:53.871Z,101261.09
2018-02-10T14:18:22.062Z,101265.55
2018-02-10T14:20:49.774Z,101267.02
2018-02-10T14:23:17.632Z,101264.34
2018-02-10T14:25:45.494Z,101262.20
2018-02-10T14:28:13.235Z,101264.29
2018-02-10T14:30:41.374Z,101258.80
2018-02-10T14:33:09.498Z,101255.98
2018-02-10T14:35:37.249Z,101258.66
2018-02-10T14:38:04.961Z,101266.33
2018-02-10T14:40:33.991Z,101261.92
2018-02-10T14:43:01.772Z,101258.84
2018-02-10T14:45:29.560Z,101253.48
2018-02-10T14:47:57.340Z,101257.22
2018-02-10T14:50:25.124Z,101249.05
2018-02-10T14:52:53.384Z,101242.31
2018-02-10T14:55:21.159Z,101242.58
2018-02-10T14:57:48.839Z,101242.01
2018-02-10T15:03:07.496Z,101240.95
2018-02-10T15:05:36.080Z,101236.25
2018-02-10T15:08:03.866Z,101241.49
2018-02-10T15:10:31.592Z,101244.97
2018-02-10T15:12:59.437Z,101242.96
2018-02-10T15:15:27.189Z,101246.70
2018-02-10T15:17:55.124Z,101236.10
2018-02-10T15:20:22.892Z,101238.62
2018-02-10T15:22:50.820Z,101239.02
2018-02-10T15:25:18.531Z,101235.53
2018-02-10T15:27:46.337Z,101232.56
2018-02-10T15:30:25.904Z,101225.58
2018-02-10T15:33:05.577Z,101214.29
2018-02-10T15:35:33.384Z,101217.71
2018-02-10T15:38:02.438Z,101219.98
2018-02-10T15:40:30.508Z,101207.91
2018-02-10T15:42:58.241Z,101209.26
2018-02-10T15:45:25.985Z,101204.83
2018-02-10T15:47:53.785Z,101202.27
2018-02-10T15:50:21.560Z,101200.91
2018-02-10T15:52:49.327Z,101200.20
2018-02-10T15:55:17.113Z,101196.95
2018-02-10T15:57:44.919Z,101192.08
2018-02-10T16:00:15.811Z,101196.08
2018-02-10T16:02:43.700Z,101190.30
2018-02-10T16:05:11.770Z,101177.95
2018-02-10T16:07:40.568Z,101174.16
2018-02-10T16:10:08.324Z,101165.80
2018-02-10T16:12:36.147Z,101169.41
2018-02-10T16:15:06.818Z,101164.83
2018-02-10T16:17:38.334Z,101165.05
2018-02-10T16:20:08.264Z,101163.30
2018-02-10T16:22:37.878Z,101171.31
2018-02-10T16:25:05.634Z,101161.27
2018-02-10T16:27:33.506Z,101154.82
2018-02-10T16:30:01.274Z,101153.99
2018-02-10T16:32:29.038Z,101151.98
2018-02-10T16:34:56.852Z,101155.43
2018-02-10T16:42:36.613Z,101146.67
2018-02-10T16:45:04.648Z,101138.09
2018-02-10T16:47:32.374Z,101130.83
2018-02-10T16:50:00.549Z,101129.30
2018-02-10T16:52:28.732Z,101129.30
2018-02-10T16:54:56.990Z,101125.86
2018-02-10T16:57:27.146Z,101122.20
2018-02-10T16:59:54.982Z,101111.45
2018-02-10T17:02:22.689Z,101115.56
2018-02-10T17:04:50.463Z,101112.16
2018-02-10T17:07:18.196Z,101115.56
2018-02-10T17:09:45.916Z,101113.27
2018-02-10T17:12:13.609Z,101111.06
2018-02-10T17:14:43.658Z,101106.47
2018-02-10T17:17:13.274Z,101094.23
2018-02-10T17:19:41.537Z,101101.97
2018-02-10T17:22:09.466Z,101099.65
2018-02-10T17:24:37.170Z,101092.80
2018-02-10T17:27:06.509Z,101093.55
2018-02-10T17:29:34.558Z,101093.52
2018-02-10T17:32:02.358Z,101088.55
2018-02-10T17:34:30.048Z,101084.21
2018-02-10T17:36:57.757Z,101090.77
2018-02-10T17:39:25.555Z,101088.64
2018-02-10T17:41:53.266Z,101083.45
2018-02-10T17:44:20.984Z,101085.75
2018-02-10T17:46:48.704Z,101077.59
2018-02-10T17:49:16.372Z,101086.33
2018-02-10T17:51:44.454Z,101085.66
2018-02-10T17:54:12.186Z,101086.95
2018-02-10T17:56:39.845Z,101083.48
2018-02-10T17:59:07.523Z,101073.42
2018-02-10T18:01:35.270Z,101078.64
2018-02-10T18:04:03.033Z,101075.94
2018-02-10T18:06:30.779Z,101064.84
2018-02-10T18:08:58.581Z,101065.48
2018-02-10T18:11:26.313Z,101062.69
2018-02-10T18:13:54.129Z,101060.17
2018-02-10T18:16:21.871Z,101066.45
2018-02-10T18:18:49.683Z,101067.44
2018-02-10T18:21:17.406Z,101062.47
2018-02-10T18:23:45.243Z,101060.33
2018-02-10T18:26:13.022Z,101059.34
2018-02-10T18:28:40.882Z,101061.47
2018-02-10T18:31:08.738Z,101056.53
2018-02-10T18:33:36.501Z,101048.77
2018-02-10T18:36:04.240Z,101039.12
2018-02-10T18:38:33.076Z,101040.73
2018-02-10T18:41:00.816Z,101037.91
2018-02-10T18:43:28.566Z,101035.90
2018-02-10T18:45:56.323Z,101025.61
2018-02-10T18:48:24.440Z,101031.38
2018-02-10T18:50:52.177Z,101022.14
2018-02-10T18:53:20.188Z,101021.56
2018-02-10T18:55:47.952Z,101028.83
2018-02-10T18:58:15.850Z,101035.10
2018-02-10T19:00:44.301Z,101029.75
2018-02-10T19:03:11.983Z,101031.50
2018-02-10T19:05:39.691Z,101021.31
2018-02-10T19:08:07.432Z,101022.39
2018-02-10T19:10:35.550Z,101016.47
2018-02-10T19:13:03.269Z,101013.22
2018-02-10T19:15:31.069Z,101004.15
2018-02-10T19:17:59.571Z,100999.08
2018-02-10T19:20:27.525Z,101004.97
2018-02-10T19:22:55.298Z,100996.13
2018-02-10T19:25:23.075Z,100992.39
2018-02-10T19:27:50.760Z,100982.78
2018-02-10T19:30:18.613Z,100978.77
2018-02-10T19:32:46.365Z,100968.33
2018-02-10T19:35:14.142Z,100964.98
2018-02-10T19:37:41.883Z,100962.30
2018-02-10T19:40:09.649Z,100953.64
2018-02-10T19:42:37.471Z,100944.38
2018-02-10T19:45:05.262Z,100940.08
2018-02-10T19:47:33.101Z,100929.63
2018-02-10T19:50:00.834Z,100932.34
2018-02-10T19:52:28.531Z,100929.95
2018-02-10T19:54:56.278Z,100920.84
2018-02-10T19:57:24.021Z,100920.59
2018-02-10T19:59:51.858Z,100921.26
2018-02-10T20:02:19.718Z,100916.32
2018-02-10T20:04:47.429Z,100911.80
2018-02-10T20:07:15.115Z,100907.27
2018-02-10T20:09:43.260Z,100900.30
2018-02-10T20:12:11.211Z,100899.78
2018-02-10T20:14:39.386Z,100894.75
2018-02-10T20:17:07.118Z,100887.01
2018-02-10T20:19:34.951Z,100888.09
2018-02-10T20:22:02.736Z,100883.27
2018-02-10T20:24:30.958Z,100873.39
2018-02-10T20:26:59.160Z,100870.36
2018-02-10T20:29:26.976Z,100864.49
2018-02-10T20:31:54.664Z,100862.23
2018-02-10T20:34:22.455Z,100862.38
2018-02-10T20:36:50.226Z,100860.22
2018-02-10T20:39:18.005Z,100858.77
2018-02-10T20:41:45.872Z,100846.76
2018-02-10T20:44:13.637Z,100847.04
2018-02-10T20:46:41.379Z,100845.06
2018-02-10T20:49:09.182Z,100840.34
2018-02-10T20:51:37.137Z,100839.30
2018-02-10T20:54:04.923Z,100837.28
2018-02-10T20:56:33.249Z,100821.36
2018-02-10T20:59:01.130Z,100814.95
2018-02-10T21:01:28.908Z,100814.55
2018-02-10T21:03:56.745Z,100808.43
2018-02-10T21:11:43.706Z,100798.25
2018-02-10T21:14:11.442Z,100793.70
2018-02-10T21:16:39.221Z,100785.96
2018-02-10T21:19:07.033Z,100784.61
2018-02-10T21:21:34.685Z,100770.17
2018-02-10T21:24:02.412Z,100769.79
2018-02-10T21:26:30.105Z,100767.09
2018-02-10T21:28:57.914Z,100762.69
2018-02-10T21:31:25.618Z,100760.42
2018-02-10T21:33:53.380Z,100756.26
2018-02-10T21:36:21.130Z,100761.34
2018-02-10T21:38:48.923Z,100750.09
2018-02-10T21:41:16.640Z,100746.50
2018-02-10T21:43:44.396Z,100741.69
2018-02-10T21:46:12.168Z,100731.23
2018-02-10T21:48:39.972Z,100736.03
2018-02-10T21:51:07.779Z,100723.16
2018-02-10T21:53:35.426Z,100719.15
2018-02-10T21:56:03.152Z,100706.05
2018-02-10T21:58:30.891Z,100702.02
2018-02-10T22:00:58.964Z,100700.83
2018-02-10T22:03:26.659Z,100695.61
2018-02-10T22:05:54.545Z,100689.71
2018-02-10T22:08:22.210Z,100677.16
2018-02-10T22:19:52.166Z,100647.42
2018-02-10T22:22:19.910Z,100638.19
2018-02-10T22:24:47.670Z,100641.78
2018-02-10T22:27:15.566Z,100635.80
2018-02-10T22:29:43.315Z,100638.05
2018-02-10T22:32:11.127Z,100628.95
2018-02-10T22:34:38.892Z,100626.95
2018-02-10T22:37:06.606Z,100627.22
2018-02-10T22:39:34.346Z,100621.70
2018-02-10T22:42:02.171Z,100622.25
2018-02-10T22:44:29.953Z,100622.25
2018-02-10T22:46:57.800Z,100616.89
2018-02-10T22:49:25.619Z,100599.92
2018-02-10T22:51:53.451Z,100596.70
2018-02-10T22:54:21.298Z,100593.61
2018-02-10T22:56:49.440Z,100584.00
2018-02-10T22:59:17.220Z,100585.86
2018-02-10T23:01:45.467Z,100581.83
2018-02-10T23:04:13.575Z,100568.44
2018-02-10T23:06:41.324Z,100563.09
2018-02-10T23:09:09.126Z,100560.84
2018-02-10T23:11:36.800Z,100554.94
2018-02-10T23:14:04.537Z,100548.36
2018-02-10T23:16:32.302Z,100538.59
2018-02-10T23:19:00.113Z,100528.41
2018-02-10T23:21:27.866Z,100520.52
2018-02-10T23:23:55.589Z,100511.83
2018-02-10T23:26:23.331Z,100504.20
2018-02-10T23:28:51.066Z,100504.70
2018-02-10T23:31:18.788Z,100491.98
2018-02-10T23:33:46.499Z,100481.55
2018-02-10T23:36:14.693Z,100480.05
2018-02-10T23:38:42.349Z,100467.05
2018-02-10T23:41:10.089Z,100465.30
2018-02-10T23:43:37.977Z,100463.44
2018-02-10T23:46:06.308Z,100462.51
2018-02-10T23:48:34.594Z,100452.45
2018-02-10T23:51:03.077Z,100451.53
2018-02-10T23:53:31.090Z,100445.88
2018-02-10T23:55:58.810Z,100431.71
2018-02-10T23:58:26.514Z,100425.04
